sensor_id;sensor_type;location;lat;lon;timestamp;temperature;humidity
5276;DHT22;2661;50.786;12.728;2023-04-07T00:02:10;0.90;93.30
5276;DHT22;2661;50.786;12.728;2023-04-07T00:04:37;0.90;87.90
5276;DHT22;2661;50.786;12.728;2023-04-07T00:07:04;1.00;94.30
5276;DHT22;2661;50.786;12.728;2023-04-07T00:09:30;0.90;94.40
5276;DHT22;2661;50.786;12.728;2023-04-07T00:11:57;0.90;93.00
5276;DHT22;2661;50.786;12.728;2023-04-07T00:14:23;0.90;99.90
5276;DHT22;2661;50.786;12.728;2023-04-07T00:16:50;0.90;91.70
5276;DHT22;2661;50.786;12.728;2023-04-07T00:19:17;0.90;94.50
5276;DHT22;2661;50.786;12.728;2023-04-07T00:21:44;0.90;99.50
5276;DHT22;2661;50.786;12.728;2023-04-07T00:24:10;0.90;94.60
5276;DHT22;2661;50.786;12.728;2023-04-07T00:26:41;0.90;90.70
5276;DHT22;2661;50.786;12.728;2023-04-07T00:29:08;0.90;96.80
5276;DHT22;2661;50.786;12.728;2023-04-07T00:31:34;0.90;98.50
5276;DHT22;2661;50.786;12.728;2023-04-07T00:34:01;0.80;46.80
5276;DHT22;2661;50.786;12.728;2023-04-07T00:36:28;0.80;99.60
5276;DHT22;2661;50.786;12.728;2023-04-07T00:38:54;0.80;93.40
5276;DHT22;2661;50.786;12.728;2023-04-07T00:41:21;0.80;99.90
5276;DHT22;2661;50.786;12.728;2023-04-07T00:43:48;0.80;99.90
5276;DHT22;2661;50.786;12.728;2023-04-07T00:46:15;0.90;99.90
5276;DHT22;2661;50.786;12.728;2023-04-07T00:48:42;0.80;96.20
5276;DHT22;2661;50.786;12.728;2023-04-07T00:51:09;0.80;94.90
5276;DHT22;2661;50.786;12.728;2023-04-07T00:53:36;0.70;99.00
5276;DHT22;2661;50.786;12.728;2023-04-07T00:56:03;0.80;98.20
5276;DHT22;2661;50.786;12.728;2023-04-07T00:58:30;0.70;99.90
5276;DHT22;2661;50.786;12.728;2023-04-07T01:01:07;0.60;99.10
5276;DHT22;2661;50.786;12.728;2023-04-07T01:03:45;0.60;95.80
5276;DHT22;2661;50.786;12.728;2023-04-07T01:06:15;0.60;99.90
5276;DHT22;2661;50.786;12.728;2023-04-07T01:11:36;0.50;79.50
5276;DHT22;2661;50.786;12.728;2023-04-07T01:14:06;0.40;94.70
5276;DHT22;2661;50.786;12.728;2023-04-07T01:16:36;0.40;97.60
5276;DHT22;2661;50.786;12.728;2023-04-07T01:19:49;0.40;90.20
5276;DHT22;2661;50.786;12.728;2023-04-07T01:21:55;0.40;92.50
5276;DHT22;2661;50.786;12.728;2023-04-07T01:24:35;0.40;91.00
5276;DHT22;2661;50.786;12.728;2023-04-07T01:30:33;0.30;90.50
5276;DHT22;2661;50.786;12.728;2023-04-07T01:33:01;0.30;95.90
5276;DHT22;2661;50.786;12.728;2023-04-07T01:35:28;0.30;91.70
5276;DHT22;2661;50.786;12.728;2023-04-07T01:37:56;0.30;97.30
5276;DHT22;2661;50.786;12.728;2023-04-07T01:40:23;0.40;95.30
5276;DHT22;2661;50.786;12.728;2023-04-07T01:42:50;0.40;91.00
5276;DHT22;2661;50.786;12.728;2023-04-07T01:45:17;0.40;90.10
5276;DHT22;2661;50.786;12.728;2023-04-07T01:47:45;0.30;91.50
5276;DHT22;2661;50.786;12.728;2023-04-07T01:50:12;0.20;89.70
5276;DHT22;2661;50.786;12.728;2023-04-07T01:52:39;0.30;90.90
5276;DHT22;2661;50.786;12.728;2023-04-07T01:55:06;0.30;93.30
5276;DHT22;2661;50.786;12.728;2023-04-07T01:57:32;0.30;93.10
5276;DHT22;2661;50.786;12.728;2023-04-07T01:59:59;0.20;92.20
5276;DHT22;2661;50.786;12.728;2023-04-07T02:02:26;0.10;99.40
5276;DHT22;2661;50.786;12.728;2023-04-07T02:04:57;0.10;93.50
5276;DHT22;2661;50.786;12.728;2023-04-07T02:07:26;0.10;99.90
5276;DHT22;2661;50.786;12.728;2023-04-07T02:09:55;0.10;97.90
5276;DHT22;2661;50.786;12.728;2023-04-07T02:12:23;0.10;93.80
5276;DHT22;2661;50.786;12.728;2023-04-07T02:14:52;0.20;95.10
5276;DHT22;2661;50.786;12.728;2023-04-07T02:17:18;0.10;94.00
5276;DHT22;2661;50.786;12.728;2023-04-07T02:19:45;0.00;95.60
5276;DHT22;2661;50.786;12.728;2023-04-07T02:22:13;0.10;91.20
5276;DHT22;2661;50.786;12.728;2023-04-07T02:24:41;0.10;97.70
5276;DHT22;2661;50.786;12.728;2023-04-07T02:27:08;0.00;87.70
5276;DHT22;2661;50.786;12.728;2023-04-07T02:29:34;0.00;80.10
5276;DHT22;2661;50.786;12.728;2023-04-07T02:32:01;-0.10;94.30
5276;DHT22;2661;50.786;12.728;2023-04-07T02:34:27;0.00;88.30
5276;DHT22;2661;50.786;12.728;2023-04-07T02:36:54;0.00;95.30
5276;DHT22;2661;50.786;12.728;2023-04-07T02:39:21;0.10;96.50
5276;DHT22;2661;50.786;12.728;2023-04-07T02:41:47;0.10;96.60
5276;DHT22;2661;50.786;12.728;2023-04-07T02:44:14;0.10;91.40
5276;DHT22;2661;50.786;12.728;2023-04-07T02:46:40;0.20;96.50
5276;DHT22;2661;50.786;12.728;2023-04-07T02:49:07;0.10;84.10
5276;DHT22;2661;50.786;12.728;2023-04-07T02:51:33;0.20;91.40
5276;DHT22;2661;50.786;12.728;2023-04-07T02:54:00;0.10;97.40
5276;DHT22;2661;50.786;12.728;2023-04-07T02:56:51;0.00;61.80
5276;DHT22;2661;50.786;12.728;2023-04-07T02:59:17;0.10;86.20
5276;DHT22;2661;50.786;12.728;2023-04-07T03:01:44;0.10;83.90
5276;DHT22;2661;50.786;12.728;2023-04-07T03:04:10;0.20;83.90
5276;DHT22;2661;50.786;12.728;2023-04-07T03:06:37;0.30;89.60
5276;DHT22;2661;50.786;12.728;2023-04-07T03:09:04;0.30;86.40
5276;DHT22;2661;50.786;12.728;2023-04-07T03:11:30;0.20;91.80
5276;DHT22;2661;50.786;12.728;2023-04-07T03:13:57;0.20;79.80
5276;DHT22;2661;50.786;12.728;2023-04-07T03:16:23;0.30;76.60
5276;DHT22;2661;50.786;12.728;2023-04-07T03:18:50;0.40;86.10
5276;DHT22;2661;50.786;12.728;2023-04-07T03:21:16;0.30;91.70
5276;DHT22;2661;50.786;12.728;2023-04-07T03:23:43;0.30;82.40
5276;DHT22;2661;50.786;12.728;2023-04-07T03:26:10;0.40;90.30
5276;DHT22;2661;50.786;12.728;2023-04-07T03:28:37;0.20;87.80
5276;DHT22;2661;50.786;12.728;2023-04-07T03:31:03;0.20;99.90
5276;DHT22;2661;50.786;12.728;2023-04-07T03:33:30;0.30;99.90
5276;DHT22;2661;50.786;12.728;2023-04-07T03:35:56;0.30;98.10
5276;DHT22;2661;50.786;12.728;2023-04-07T03:38:23;0.20;91.10
5276;DHT22;2661;50.786;12.728;2023-04-07T03:40:50;0.30;91.70
5276;DHT22;2661;50.786;12.728;2023-04-07T03:43:16;0.20;93.50
5276;DHT22;2661;50.786;12.728;2023-04-07T03:45:43;0.20;97.00
5276;DHT22;2661;50.786;12.728;2023-04-07T03:48:09;0.20;79.80
5276;DHT22;2661;50.786;12.728;2023-04-07T03:50:38;0.30;62.90
5276;DHT22;2661;50.786;12.728;2023-04-07T03:53:05;0.20;96.30
5276;DHT22;2661;50.786;12.728;2023-04-07T03:55:33;0.20;54.30
5276;DHT22;2661;50.786;12.728;2023-04-07T03:58:00;0.20;60.30
5276;DHT22;2661;50.786;12.728;2023-04-07T04:00:27;0.10;56.70
5276;DHT22;2661;50.786;12.728;2023-04-07T04:02:53;0.10;18.30
5276;DHT22;2661;50.786;12.728;2023-04-07T04:05:20;0.00;18.80
5276;DHT22;2661;50.786;12.728;2023-04-07T04:07:46;0.10;16.20
5276;DHT22;2661;50.786;12.728;2023-04-07T04:10:13;0.00;26.90
5276;DHT22;2661;50.786;12.728;2023-04-07T04:12:40;-0.10;35.30
5276;DHT22;2661;50.786;12.728;2023-04-07T04:15:07;-0.20;29.90
5276;DHT22;2661;50.786;12.728;2023-04-07T04:17:34;-0.20;35.70
5276;DHT22;2661;50.786;12.728;2023-04-07T04:20:01;-0.10;50.40
5276;DHT22;2661;50.786;12.728;2023-04-07T04:22:27;-0.20;29.90
5276;DHT22;2661;50.786;12.728;2023-04-07T04:24:54;-0.20;35.60
5276;DHT22;2661;50.786;12.728;2023-04-07T04:27:20;-0.20;84.40
5276;DHT22;2661;50.786;12.728;2023-04-07T04:29:47;-0.20;20.30
5276;DHT22;2661;50.786;12.728;2023-04-07T04:32:14;-0.30;6.00
5276;DHT22;2661;50.786;12.728;2023-04-07T04:34:40;-0.20;1.00
5276;DHT22;2661;50.786;12.728;2023-04-07T04:37:07;-0.20;24.80
5276;DHT22;2661;50.786;12.728;2023-04-07T04:39:34;-0.20;26.70
5276;DHT22;2661;50.786;12.728;2023-04-07T04:42:00;-0.20;15.20
5276;DHT22;2661;50.786;12.728;2023-04-07T04:44:27;-0.20;17.20
5276;DHT22;2661;50.786;12.728;2023-04-07T04:46:55;-0.30;19.10
5276;DHT22;2661;50.786;12.728;2023-04-07T04:49:22;-0.30;7.20
5276;DHT22;2661;50.786;12.728;2023-04-07T04:51:48;-0.40;17.70
5276;DHT22;2661;50.786;12.728;2023-04-07T04:54:15;-0.40;24.90
5276;DHT22;2661;50.786;12.728;2023-04-07T04:56:42;-0.40;72.40
5276;DHT22;2661;50.786;12.728;2023-04-07T04:59:08;-0.40;20.50
5276;DHT22;2661;50.786;12.728;2023-04-07T05:01:35;-0.50;14.40
5276;DHT22;2661;50.786;12.728;2023-04-07T05:04:01;-0.50;23.60
5276;DHT22;2661;50.786;12.728;2023-04-07T05:06:29;-0.40;13.60
5276;DHT22;2661;50.786;12.728;2023-04-07T05:08:56;-0.20;37.00
5276;DHT22;2661;50.786;12.728;2023-04-07T05:11:22;-0.40;26.50
5276;DHT22;2661;50.786;12.728;2023-04-07T05:13:49;-0.40;28.90
5276;DHT22;2661;50.786;12.728;2023-04-07T05:16:16;-0.40;13.50
5276;DHT22;2661;50.786;12.728;2023-04-07T05:18:43;-0.50;12.30
5276;DHT22;2661;50.786;12.728;2023-04-07T05:21:09;-0.40;14.30
5276;DHT22;2661;50.786;12.728;2023-04-07T05:23:36;-0.50;12.30
5276;DHT22;2661;50.786;12.728;2023-04-07T05:26:02;-0.50;17.60
5276;DHT22;2661;50.786;12.728;2023-04-07T05:28:29;-0.40;99.90
5276;DHT22;2661;50.786;12.728;2023-04-07T05:30:55;-0.40;31.80
5276;DHT22;2661;50.786;12.728;2023-04-07T05:33:22;-0.40;99.90
5276;DHT22;2661;50.786;12.728;2023-04-07T05:35:48;-0.50;24.10
5276;DHT22;2661;50.786;12.728;2023-04-07T05:38:17;-0.40;19.90
5276;DHT22;2661;50.786;12.728;2023-04-07T05:40:44;-0.30;43.10
5276;DHT22;2661;50.786;12.728;2023-04-07T05:43:10;-0.30;18.80
5276;DHT22;2661;50.786;12.728;2023-04-07T05:45:37;-0.30;17.60
5276;DHT22;2661;50.786;12.728;2023-04-07T05:48:04;-0.30;21.30
5276;DHT22;2661;50.786;12.728;2023-04-07T05:50:31;-0.20;16.90
5276;DHT22;2661;50.786;12.728;2023-04-07T05:52:57;-0.10;20.20
5276;DHT22;2661;50.786;12.728;2023-04-07T05:55:24;-0.10;20.70
5276;DHT22;2661;50.786;12.728;2023-04-07T05:57:50;-0.10;26.70
5276;DHT22;2661;50.786;12.728;2023-04-07T06:00:17;-0.10;23.60
5276;DHT22;2661;50.786;12.728;2023-04-07T06:02:45;0.00;24.80
5276;DHT22;2661;50.786;12.728;2023-04-07T06:05:12;0.10;19.90
5276;DHT22;2661;50.786;12.728;2023-04-07T06:07:38;0.10;16.40
5276;DHT22;2661;50.786;12.728;2023-04-07T06:10:05;0.20;25.80
5276;DHT22;2661;50.786;12.728;2023-04-07T06:12:32;0.20;46.20
5276;DHT22;2661;50.786;12.728;2023-04-07T06:14:58;0.30;99.90
5276;DHT22;2661;50.786;12.728;2023-04-07T06:17:25;0.30;98.20
5276;DHT22;2661;50.786;12.728;2023-04-07T06:19:52;0.50;99.90
5276;DHT22;2661;50.786;12.728;2023-04-07T06:22:18;0.60;99.90
5276;DHT22;2661;50.786;12.728;2023-04-07T06:24:46;0.70;99.90
5276;DHT22;2661;50.786;12.728;2023-04-07T06:27:12;0.90;99.90
5276;DHT22;2661;50.786;12.728;2023-04-07T06:29:39;0.90;82.70
5276;DHT22;2661;50.786;12.728;2023-04-07T06:32:06;0.90;99.90
5276;DHT22;2661;50.786;12.728;2023-04-07T06:34:32;1.00;96.70
5276;DHT22;2661;50.786;12.728;2023-04-07T06:36:59;1.00;17.80
5276;DHT22;2661;50.786;12.728;2023-04-07T06:39:26;1.10;32.30
5276;DHT22;2661;50.786;12.728;2023-04-07T06:41:53;1.40;30.40
5276;DHT22;2661;50.786;12.728;2023-04-07T06:44:20;1.40;27.60
5276;DHT22;2661;50.786;12.728;2023-04-07T06:46:46;1.50;25.10
5276;DHT22;2661;50.786;12.728;2023-04-07T06:49:15;1.50;39.90
5276;DHT22;2661;50.786;12.728;2023-04-07T06:51:42;1.60;24.70
5276;DHT22;2661;50.786;12.728;2023-04-07T06:54:11;1.70;25.30
5276;DHT22;2661;50.786;12.728;2023-04-07T06:56:39;1.90;31.70
5276;DHT22;2661;50.786;12.728;2023-04-07T06:59:06;2.00;19.60
5276;DHT22;2661;50.786;12.728;2023-04-07T07:01:33;2.10;24.80
5276;DHT22;2661;50.786;12.728;2023-04-07T07:04:00;2.20;14.80
5276;DHT22;2661;50.786;12.728;2023-04-07T07:06:27;2.40;26.00
5276;DHT22;2661;50.786;12.728;2023-04-07T07:08:53;2.50;74.90
5276;DHT22;2661;50.786;12.728;2023-04-07T07:11:20;2.70;64.10
5276;DHT22;2661;50.786;12.728;2023-04-07T07:13:46;2.80;53.20
5276;DHT22;2661;50.786;12.728;2023-04-07T07:16:13;2.90;43.70
5276;DHT22;2661;50.786;12.728;2023-04-07T07:18:40;3.10;77.00
5276;DHT22;2661;50.786;12.728;2023-04-07T07:21:07;3.10;75.80
5276;DHT22;2661;50.786;12.728;2023-04-07T07:23:33;3.20;81.90
5276;DHT22;2661;50.786;12.728;2023-04-07T07:26:00;3.40;18.20
5276;DHT22;2661;50.786;12.728;2023-04-07T07:28:26;3.50;11.40
5276;DHT22;2661;50.786;12.728;2023-04-07T07:30:54;3.60;30.70
5276;DHT22;2661;50.786;12.728;2023-04-07T07:33:21;3.80;25.30
5276;DHT22;2661;50.786;12.728;2023-04-07T07:35:48;3.90;39.80
5276;DHT22;2661;50.786;12.728;2023-04-07T07:38:15;4.00;50.80
5276;DHT22;2661;50.786;12.728;2023-04-07T07:40:41;4.00;33.10
5276;DHT22;2661;50.786;12.728;2023-04-07T07:43:08;4.10;43.50
5276;DHT22;2661;50.786;12.728;2023-04-07T07:45:34;4.10;58.00
5276;DHT22;2661;50.786;12.728;2023-04-07T07:48:01;4.30;71.20
5276;DHT22;2661;50.786;12.728;2023-04-07T07:50:28;4.30;55.00
5276;DHT22;2661;50.786;12.728;2023-04-07T07:52:55;4.40;51.60
5276;DHT22;2661;50.786;12.728;2023-04-07T07:55:21;4.50;72.00
5276;DHT22;2661;50.786;12.728;2023-04-07T07:57:48;4.60;52.80
5276;DHT22;2661;50.786;12.728;2023-04-07T08:00:15;4.60;56.70
5276;DHT22;2661;50.786;12.728;2023-04-07T08:02:41;4.70;54.50
5276;DHT22;2661;50.786;12.728;2023-04-07T08:05:08;4.80;62.90
5276;DHT22;2661;50.786;12.728;2023-04-07T08:07:35;5.00;84.20
5276;DHT22;2661;50.786;12.728;2023-04-07T08:10:02;5.30;99.90
5276;DHT22;2661;50.786;12.728;2023-04-07T08:12:28;5.40;71.50
5276;DHT22;2661;50.786;12.728;2023-04-07T08:15:19;5.50;71.40
5276;DHT22;2661;50.786;12.728;2023-04-07T08:17:46;5.50;92.60
5276;DHT22;2661;50.786;12.728;2023-04-07T08:20:13;5.60;77.00
5276;DHT22;2661;50.786;12.728;2023-04-07T08:22:39;5.70;74.50
5276;DHT22;2661;50.786;12.728;2023-04-07T08:25:06;5.90;77.30
5276;DHT22;2661;50.786;12.728;2023-04-07T08:27:33;6.00;90.70
5276;DHT22;2661;50.786;12.728;2023-04-07T08:30:02;6.10;78.50
5276;DHT22;2661;50.786;12.728;2023-04-07T08:35:02;6.20;75.90
5276;DHT22;2661;50.786;12.728;2023-04-07T08:37:29;6.20;65.70
5276;DHT22;2661;50.786;12.728;2023-04-07T08:39:55;6.30;83.30
5276;DHT22;2661;50.786;12.728;2023-04-07T08:42:23;6.40;82.90
5276;DHT22;2661;50.786;12.728;2023-04-07T08:44:52;6.50;85.50
5276;DHT22;2661;50.786;12.728;2023-04-07T08:47:20;6.70;86.90
5276;DHT22;2661;50.786;12.728;2023-04-07T08:49:48;6.80;79.80
5276;DHT22;2661;50.786;12.728;2023-04-07T08:52:20;7.00;89.80
5276;DHT22;2661;50.786;12.728;2023-04-07T08:54:48;7.00;90.10
5276;DHT22;2661;50.786;12.728;2023-04-07T08:57:15;7.20;89.80
5276;DHT22;2661;50.786;12.728;2023-04-07T08:59:43;7.30;91.20
5276;DHT22;2661;50.786;12.728;2023-04-07T09:02:13;7.40;73.70
5276;DHT22;2661;50.786;12.728;2023-04-07T09:04:40;7.50;88.70
5276;DHT22;2661;50.786;12.728;2023-04-07T09:07:08;7.60;95.80
5276;DHT22;2661;50.786;12.728;2023-04-07T09:09:34;7.70;96.20
5276;DHT22;2661;50.786;12.728;2023-04-07T09:12:01;7.80;88.10
5276;DHT22;2661;50.786;12.728;2023-04-07T09:14:28;7.80;99.80
5276;DHT22;2661;50.786;12.728;2023-04-07T09:16:54;7.90;95.90
5276;DHT22;2661;50.786;12.728;2023-04-07T09:19:23;8.00;99.90
5276;DHT22;2661;50.786;12.728;2023-04-07T09:21:50;8.10;99.60
5276;DHT22;2661;50.786;12.728;2023-04-07T09:24:27;8.10;99.90
5276;DHT22;2661;50.786;12.728;2023-04-07T09:27:07;8.20;98.80
5276;DHT22;2661;50.786;12.728;2023-04-07T09:29:35;8.20;93.40
5276;DHT22;2661;50.786;12.728;2023-04-07T09:32:02;8.30;99.90
5276;DHT22;2661;50.786;12.728;2023-04-07T09:34:31;8.40;99.90
5276;DHT22;2661;50.786;12.728;2023-04-07T09:36:57;8.50;99.90
5276;DHT22;2661;50.786;12.728;2023-04-07T09:39:24;8.50;98.00
5276;DHT22;2661;50.786;12.728;2023-04-07T09:41:51;8.50;95.20
5276;DHT22;2661;50.786;12.728;2023-04-07T09:44:18;8.30;99.90
5276;DHT22;2661;50.786;12.728;2023-04-07T09:46:52;8.30;99.90
5276;DHT22;2661;50.786;12.728;2023-04-07T09:49:19;8.20;99.90
5276;DHT22;2661;50.786;12.728;2023-04-07T09:51:56;8.20;99.90
5276;DHT22;2661;50.786;12.728;2023-04-07T09:54:33;8.30;99.90
5276;DHT22;2661;50.786;12.728;2023-04-07T09:57:00;8.40;99.90
5276;DHT22;2661;50.786;12.728;2023-04-07T09:59:28;8.40;99.90
5276;DHT22;2661;50.786;12.728;2023-04-07T10:01:55;8.50;99.90
5276;DHT22;2661;50.786;12.728;2023-04-07T10:04:25;8.60;99.90
5276;DHT22;2661;50.786;12.728;2023-04-07T10:06:52;8.60;99.90
5276;DHT22;2661;50.786;12.728;2023-04-07T10:09:22;8.70;99.90
5276;DHT22;2661;50.786;12.728;2023-04-07T10:11:50;8.70;99.90
5276;DHT22;2661;50.786;12.728;2023-04-07T10:14:17;8.80;99.90
5276;DHT22;2661;50.786;12.728;2023-04-07T10:16:43;8.80;99.90
5276;DHT22;2661;50.786;12.728;2023-04-07T10:19:11;8.90;99.90
5276;DHT22;2661;50.786;12.728;2023-04-07T10:21:39;9.00;99.90
5276;DHT22;2661;50.786;12.728;2023-04-07T10:24:21;9.00;99.90
5276;DHT22;2661;50.786;12.728;2023-04-07T10:26:55;9.10;99.90
5276;DHT22;2661;50.786;12.728;2023-04-07T10:29:23;9.30;99.90
5276;DHT22;2661;50.786;12.728;2023-04-07T10:31:50;9.40;99.90
5276;DHT22;2661;50.786;12.728;2023-04-07T10:34:30;9.50;99.90
5276;DHT22;2661;50.786;12.728;2023-04-07T10:37:07;9.60;99.90
5276;DHT22;2661;50.786;12.728;2023-04-07T10:39:35;9.70;99.90
5276;DHT22;2661;50.786;12.728;2023-04-07T10:42:03;9.80;99.90
5276;DHT22;2661;50.786;12.728;2023-04-07T10:47:05;9.80;99.90
5276;DHT22;2661;50.786;12.728;2023-04-07T10:49:32;9.90;99.90
5276;DHT22;2661;50.786;12.728;2023-04-07T10:54:38;10.10;99.90
5276;DHT22;2661;50.786;12.728;2023-04-07T10:57:06;10.30;99.90
5276;DHT22;2661;50.786;12.728;2023-04-07T10:59:37;10.40;99.90
5276;DHT22;2661;50.786;12.728;2023-04-07T11:04:41;10.40;99.90
5276;DHT22;2661;50.786;12.728;2023-04-07T11:07:09;10.40;99.90
5276;DHT22;2661;50.786;12.728;2023-04-07T11:09:35;10.40;99.90
5276;DHT22;2661;50.786;12.728;2023-04-07T11:12:02;10.30;99.90
5276;DHT22;2661;50.786;12.728;2023-04-07T11:14:30;10.30;99.90
5276;DHT22;2661;50.786;12.728;2023-04-07T11:16:57;10.20;99.90
5276;DHT22;2661;50.786;12.728;2023-04-07T11:19:24;10.20;99.90
5276;DHT22;2661;50.786;12.728;2023-04-07T11:21:51;10.30;99.90
5276;DHT22;2661;50.786;12.728;2023-04-07T11:24:55;10.30;99.90
5276;DHT22;2661;50.786;12.728;2023-04-07T11:27:21;10.50;99.90
5276;DHT22;2661;50.786;12.728;2023-04-07T11:29:48;10.70;99.90
5276;DHT22;2661;50.786;12.728;2023-04-07T11:32:21;10.80;99.90
5276;DHT22;2661;50.786;12.728;2023-04-07T11:34:50;10.90;99.90
5276;DHT22;2661;50.786;12.728;2023-04-07T11:37:21;10.90;99.90
5276;DHT22;2661;50.786;12.728;2023-04-07T11:39:52;10.90;99.90
5276;DHT22;2661;50.786;12.728;2023-04-07T11:44:59;10.80;99.90
5276;DHT22;2661;50.786;12.728;2023-04-07T11:47:33;10.80;99.90
5276;DHT22;2661;50.786;12.728;2023-04-07T11:50:00;10.60;99.90
5276;DHT22;2661;50.786;12.728;2023-04-07T11:52:26;10.70;99.90
5276;DHT22;2661;50.786;12.728;2023-04-07T11:54:53;10.80;99.90
5276;DHT22;2661;50.786;12.728;2023-04-07T11:57:26;10.90;99.90
5276;DHT22;2661;50.786;12.728;2023-04-07T12:02:32;10.90;99.90
5276;DHT22;2661;50.786;12.728;2023-04-07T12:05:00;10.80;99.90
5276;DHT22;2661;50.786;12.728;2023-04-07T12:07:27;10.90;99.90
5276;DHT22;2661;50.786;12.728;2023-04-07T12:09:54;10.90;99.90
5276;DHT22;2661;50.786;12.728;2023-04-07T12:12:24;10.90;99.90
5276;DHT22;2661;50.786;12.728;2023-04-07T12:14:52;10.90;99.90
5276;DHT22;2661;50.786;12.728;2023-04-07T12:17:23;11.00;99.90
5276;DHT22;2661;50.786;12.728;2023-04-07T12:19:49;11.00;99.90
5276;DHT22;2661;50.786;12.728;2023-04-07T12:22:16;11.10;99.90
5276;DHT22;2661;50.786;12.728;2023-04-07T12:24:43;11.10;99.90
5276;DHT22;2661;50.786;12.728;2023-04-07T12:27:09;11.00;99.90
5276;DHT22;2661;50.786;12.728;2023-04-07T12:29:36;11.00;99.90
5276;DHT22;2661;50.786;12.728;2023-04-07T12:32:03;10.70;99.90
5276;DHT22;2661;50.786;12.728;2023-04-07T12:34:30;10.70;99.90
5276;DHT22;2661;50.786;12.728;2023-04-07T12:36:57;10.70;99.90
5276;DHT22;2661;50.786;12.728;2023-04-07T12:39:23;10.70;99.90
5276;DHT22;2661;50.786;12.728;2023-04-07T12:41:50;10.70;99.90
5276;DHT22;2661;50.786;12.728;2023-04-07T12:44:18;10.70;99.90
5276;DHT22;2661;50.786;12.728;2023-04-07T12:46:45;10.60;99.90
5276;DHT22;2661;50.786;12.728;2023-04-07T12:49:12;10.50;99.90
5276;DHT22;2661;50.786;12.728;2023-04-07T12:51:39;10.50;99.90
5276;DHT22;2661;50.786;12.728;2023-04-07T12:54:05;10.60;99.90
5276;DHT22;2661;50.786;12.728;2023-04-07T12:56:32;10.40;99.90
5276;DHT22;2661;50.786;12.728;2023-04-07T12:58:58;10.40;99.90
5276;DHT22;2661;50.786;12.728;2023-04-07T13:01:25;10.40;99.90
5276;DHT22;2661;50.786;12.728;2023-04-07T13:03:52;10.60;99.90
5276;DHT22;2661;50.786;12.728;2023-04-07T13:06:19;10.60;99.90
5276;DHT22;2661;50.786;12.728;2023-04-07T13:08:46;10.60;99.90
5276;DHT22;2661;50.786;12.728;2023-04-07T13:11:12;10.60;99.90
5276;DHT22;2661;50.786;12.728;2023-04-07T13:13:39;10.50;99.90
5276;DHT22;2661;50.786;12.728;2023-04-07T13:16:06;10.50;99.90
5276;DHT22;2661;50.786;12.728;2023-04-07T13:18:33;10.50;99.90
5276;DHT22;2661;50.786;12.728;2023-04-07T13:20:59;10.60;99.90
5276;DHT22;2661;50.786;12.728;2023-04-07T13:23:29;10.60;99.90
5276;DHT22;2661;50.786;12.728;2023-04-07T13:26:07;10.70;99.90
5276;DHT22;2661;50.786;12.728;2023-04-07T13:28:34;10.80;99.90
5276;DHT22;2661;50.786;12.728;2023-04-07T13:31:01;10.80;99.90
5276;DHT22;2661;50.786;12.728;2023-04-07T13:33:27;10.70;99.90
5276;DHT22;2661;50.786;12.728;2023-04-07T13:35:54;10.70;99.90
5276;DHT22;2661;50.786;12.728;2023-04-07T13:38:21;10.50;99.90
5276;DHT22;2661;50.786;12.728;2023-04-07T13:40:47;10.50;99.90
5276;DHT22;2661;50.786;12.728;2023-04-07T13:43:15;10.40;99.90
5276;DHT22;2661;50.786;12.728;2023-04-07T13:45:43;10.40;99.90
5276;DHT22;2661;50.786;12.728;2023-04-07T13:48:10;10.30;99.90
5276;DHT22;2661;50.786;12.728;2023-04-07T13:50:37;10.20;99.90
5276;DHT22;2661;50.786;12.728;2023-04-07T13:53:03;10.30;99.90
5276;DHT22;2661;50.786;12.728;2023-04-07T13:55:30;10.40;99.90
5276;DHT22;2661;50.786;12.728;2023-04-07T13:57:56;10.30;99.90
5276;DHT22;2661;50.786;12.728;2023-04-07T14:00:23;10.40;99.90
5276;DHT22;2661;50.786;12.728;2023-04-07T14:02:50;10.40;99.90
5276;DHT22;2661;50.786;12.728;2023-04-07T14:05:16;10.40;99.90
5276;DHT22;2661;50.786;12.728;2023-04-07T14:07:43;10.50;99.90
5276;DHT22;2661;50.786;12.728;2023-04-07T14:10:09;10.40;99.90
5276;DHT22;2661;50.786;12.728;2023-04-07T14:12:36;10.40;99.90
5276;DHT22;2661;50.786;12.728;2023-04-07T14:15:03;10.30;99.90
5276;DHT22;2661;50.786;12.728;2023-04-07T14:17:30;10.30;99.90
5276;DHT22;2661;50.786;12.728;2023-04-07T14:19:57;10.20;99.90
5276;DHT22;2661;50.786;12.728;2023-04-07T14:22:24;10.10;99.90
5276;DHT22;2661;50.786;12.728;2023-04-07T14:24:50;10.10;99.90
5276;DHT22;2661;50.786;12.728;2023-04-07T14:27:17;9.90;99.90
5276;DHT22;2661;50.786;12.728;2023-04-07T14:29:47;9.90;99.90
5276;DHT22;2661;50.786;12.728;2023-04-07T14:32:14;9.90;99.90
5276;DHT22;2661;50.786;12.728;2023-04-07T14:34:41;9.90;99.90
5276;DHT22;2661;50.786;12.728;2023-04-07T14:37:12;9.80;99.90
5276;DHT22;2661;50.786;12.728;2023-04-07T14:39:39;9.70;99.90
5276;DHT22;2661;50.786;12.728;2023-04-07T14:42:09;9.60;99.90
5276;DHT22;2661;50.786;12.728;2023-04-07T14:44:35;9.60;99.90
5276;DHT22;2661;50.786;12.728;2023-04-07T14:47:02;9.60;99.90
5276;DHT22;2661;50.786;12.728;2023-04-07T14:49:29;9.60;99.90
5276;DHT22;2661;50.786;12.728;2023-04-07T14:51:56;9.60;99.90
5276;DHT22;2661;50.786;12.728;2023-04-07T14:54:22;9.60;99.90
5276;DHT22;2661;50.786;12.728;2023-04-07T14:56:50;9.50;99.90
5276;DHT22;2661;50.786;12.728;2023-04-07T14:59:17;9.50;99.90
5276;DHT22;2661;50.786;12.728;2023-04-07T15:01:43;9.50;99.90
5276;DHT22;2661;50.786;12.728;2023-04-07T15:04:10;9.50;99.90
5276;DHT22;2661;50.786;12.728;2023-04-07T15:06:39;9.60;99.90
5276;DHT22;2661;50.786;12.728;2023-04-07T15:09:05;9.50;99.90
5276;DHT22;2661;50.786;12.728;2023-04-07T15:11:32;9.60;99.90
5276;DHT22;2661;50.786;12.728;2023-04-07T15:13:59;9.70;99.90
5276;DHT22;2661;50.786;12.728;2023-04-07T15:16:26;9.80;99.90
5276;DHT22;2661;50.786;12.728;2023-04-07T15:18:53;9.80;99.90
5276;DHT22;2661;50.786;12.728;2023-04-07T15:21:19;9.90;99.90
5276;DHT22;2661;50.786;12.728;2023-04-07T15:23:46;10.10;99.90
5276;DHT22;2661;50.786;12.728;2023-04-07T15:26:13;10.20;99.90
5276;DHT22;2661;50.786;12.728;2023-04-07T15:28:40;10.10;99.90
5276;DHT22;2661;50.786;12.728;2023-04-07T15:31:06;10.20;99.90
5276;DHT22;2661;50.786;12.728;2023-04-07T15:33:38;10.20;99.90
5276;DHT22;2661;50.786;12.728;2023-04-07T15:36:08;10.20;99.90
5276;DHT22;2661;50.786;12.728;2023-04-07T15:38:35;10.10;99.90
5276;DHT22;2661;50.786;12.728;2023-04-07T15:41:04;10.20;99.90
5276;DHT22;2661;50.786;12.728;2023-04-07T15:43:30;10.10;99.90
5276;DHT22;2661;50.786;12.728;2023-04-07T15:45:57;10.00;99.90
5276;DHT22;2661;50.786;12.728;2023-04-07T15:48:23;9.90;99.90
5276;DHT22;2661;50.786;12.728;2023-04-07T15:50:51;9.80;99.90
5276;DHT22;2661;50.786;12.728;2023-04-07T15:53:18;9.70;99.90
5276;DHT22;2661;50.786;12.728;2023-04-07T15:55:45;9.60;99.90
5276;DHT22;2661;50.786;12.728;2023-04-07T15:58:11;9.50;99.90
5276;DHT22;2661;50.786;12.728;2023-04-07T16:00:38;9.30;99.90
5276;DHT22;2661;50.786;12.728;2023-04-07T16:03:05;9.20;99.90
5276;DHT22;2661;50.786;12.728;2023-04-07T16:05:32;9.10;99.90
5276;DHT22;2661;50.786;12.728;2023-04-07T16:07:58;9.10;99.90
5276;DHT22;2661;50.786;12.728;2023-04-07T16:10:25;9.10;99.90
5276;DHT22;2661;50.786;12.728;2023-04-07T16:12:52;9.00;99.90
5276;DHT22;2661;50.786;12.728;2023-04-07T16:15:19;9.00;99.90
5276;DHT22;2661;50.786;12.728;2023-04-07T16:18:05;9.00;99.90
5276;DHT22;2661;50.786;12.728;2023-04-07T16:20:32;9.00;99.90
5276;DHT22;2661;50.786;12.728;2023-04-07T16:22:59;9.00;99.90